EBAW/ANR METAR and TAF weather

Enter ICAO airport designator
Station Type Date Time Source
EBAW METAR 2021/05/11 17:20 UTC NOAA

EBAW 111720Z 18003KT 160V220 9999 FEW040 15/10 Q1009 NOSIG


Station Type Date Time Source
EBAW Decoded METAR 2021/05/11 17:20 UTC NOAA

Antwerpen / Deurne, Belgium (EBAW) 51-12N 004-28E 14M
May 11, 2021 - 01:20 PM EDT / 2021.05.11 1720 UTC
Wind: from the S (180 degrees) at 3 MPH (3 KT) (direction variable):0
Visibility: greater than 7 mile(s):0
Sky conditions: mostly clear
Temperature: 59 F (15 C)
Dew Point: 50 F (10 C)
Relative Humidity: 72%
Pressure (altimeter): 29.80 in. Hg (1009 hPa)
ob: EBAW 111720Z 18003KT 160V220 9999 FEW040 15/10 Q1009 NOSIG
cycle: 17

Station Type Date Time Source
EBAW TAF 2020/09/23 00:30 UTC NOAA

TAF TAF EBAW 232300Z 2400/2412 25011KT 9999 SCT030

Example: see airport list